createdAt,value
2022-09-28T00:01:51.547Z,7.50
2022-09-28T00:04:54.079Z,5.35
2022-09-28T00:07:56.755Z,3.15
2022-09-28T00:11:00.578Z,6.03
2022-09-28T00:14:03.635Z,4.60
2022-09-28T00:17:08.176Z,6.50
2022-09-28T00:20:11.249Z,6.75
2022-09-28T00:23:13.654Z,7.70
2022-09-28T00:26:17.605Z,4.43
2022-09-28T00:29:24.838Z,5.25
2022-09-28T00:32:27.967Z,5.63
2022-09-28T00:35:31.322Z,2.45
2022-09-28T00:38:36.472Z,3.85
2022-09-28T00:41:40.348Z,3.03
2022-09-28T00:44:44.123Z,3.30
2022-09-28T00:47:49.631Z,6.97
2022-09-28T00:50:52.604Z,5.47
2022-09-28T00:53:56.018Z,7.43
2022-09-28T00:57:01.079Z,3.60
2022-09-28T01:00:11.300Z,1.85
2022-09-28T01:03:15.192Z,5.47
2022-09-28T01:06:19.761Z,7.93
2022-09-28T01:09:22.984Z,4.20
2022-09-28T01:12:30.186Z,3.28
2022-09-28T01:15:36.810Z,19.50
2022-09-28T01:18:41.974Z,2.78
2022-09-28T01:21:50.910Z,4.60
2022-09-28T01:24:57.469Z,7.07
2022-09-28T01:28:05.291Z,2.65
2022-09-28T01:31:11.242Z,3.40
2022-09-28T01:34:18.655Z,1.88
2022-09-28T01:37:22.518Z,3.00
2022-09-28T01:40:26.987Z,4.40
2022-09-28T01:43:38.688Z,2.70
2022-09-28T01:46:44.526Z,3.47
2022-09-28T01:49:53.561Z,4.32
2022-09-28T01:52:59.433Z,1.92
2022-09-28T01:56:05.093Z,5.82
2022-09-28T01:59:11.623Z,2.50
2022-09-28T02:02:16.088Z,3.05
2022-09-28T02:05:22.483Z,3.65
2022-09-28T02:08:28.384Z,3.67
2022-09-28T02:11:33.191Z,3.15
2022-09-28T02:14:39.621Z,4.38
2022-09-28T02:17:42.366Z,5.75
2022-09-28T02:20:52.822Z,2.53
2022-09-28T02:23:57.378Z,3.30
2022-09-28T02:27:04.698Z,2.67
2022-09-28T02:30:12.028Z,6.47
2022-09-28T02:33:16.487Z,3.38
2022-09-28T02:36:19.514Z,8.02
2022-09-28T02:39:23.062Z,4.65
2022-09-28T02:42:30.292Z,4.00
2022-09-28T02:45:42.414Z,7.22
2022-09-28T02:49:17.493Z,8.27
2022-09-28T02:52:33.486Z,2.70
2022-09-28T02:55:43.787Z,7.25
2022-09-28T02:58:54.839Z,6.10
2022-09-28T03:02:02.591Z,10.57
2022-09-28T03:05:10.769Z,4.95
2022-09-28T03:08:18.446Z,3.38
2022-09-28T03:11:22.869Z,3.13
2022-09-28T03:14:26.839Z,4.93
2022-09-28T03:17:34.243Z,11.68
2022-09-28T03:20:37.381Z,9.93
2022-09-28T03:23:40.722Z,6.50
2022-09-28T03:26:43.228Z,7.25
2022-09-28T03:29:47.912Z,5.25
2022-09-28T03:32:59.459Z,12.18
2022-09-28T03:36:04.564Z,11.15
2022-09-28T03:39:07.509Z,10.02
2022-09-28T03:42:10.092Z,14.63
2022-09-28T03:45:17.149Z,7.50
2022-09-28T03:48:32.368Z,7.82
2022-09-28T03:51:35.446Z,8.80
2022-09-28T03:54:37.858Z,9.50
2022-09-28T03:57:41.601Z,10.80
2022-09-28T04:00:54.502Z,8.63
2022-09-28T04:04:01.710Z,8.27
2022-09-28T04:07:05.839Z,12.68
2022-09-28T04:10:14.203Z,9.30
2022-09-28T04:13:18.586Z,8.98
2022-09-28T04:16:22.336Z,9.00
2022-09-28T04:19:40.887Z,14.18
2022-09-28T04:22:55.147Z,10.80
2022-09-28T04:25:58.371Z,10.85
2022-09-28T04:29:19.664Z,12.65
2022-09-28T04:32:31.242Z,18.20
2022-09-28T04:36:06.722Z,13.27
2022-09-28T04:39:09.410Z,14.57
2022-09-28T04:42:12.132Z,13.45
2022-09-28T04:45:15.131Z,8.55
2022-09-28T04:48:20.810Z,10.82
2022-09-28T04:51:44.107Z,9.52
2022-09-28T04:54:46.996Z,12.52
2022-09-28T04:57:50.467Z,10.13
2022-09-28T05:00:54.610Z,13.57
2022-09-28T05:04:26.021Z,7.38
2022-09-28T05:08:02.795Z,9.02
2022-09-28T05:11:06.703Z,14.00
2022-09-28T05:14:13.732Z,11.05
2022-09-28T05:17:16.267Z,11.35
2022-09-28T05:20:21.647Z,12.75
2022-09-28T05:23:25.663Z,8.57
2022-09-28T05:26:31.043Z,8.77
2022-09-28T05:29:34.830Z,9.02
2022-09-28T05:33:15.956Z,7.45
2022-09-28T05:36:26.661Z,10.35
2022-09-28T05:39:30.796Z,8.20
2022-09-28T05:42:33.365Z,9.77
2022-09-28T05:45:38.086Z,10.07
2022-09-28T05:48:40.815Z,13.07
2022-09-28T05:51:44.283Z,10.55
2022-09-28T05:54:48.227Z,10.23
2022-09-28T05:57:50.928Z,14.63
2022-09-28T06:00:55.056Z,13.20
2022-09-28T06:03:59.062Z,10.02
2022-09-28T06:07:01.975Z,14.00
2022-09-28T06:10:08.040Z,12.50
2022-09-28T06:13:18.581Z,12.18
2022-09-28T06:16:21.848Z,11.98
2022-09-28T06:19:24.437Z,15.35
2022-09-28T06:22:47.211Z,14.48
2022-09-28T06:25:51.094Z,13.57
2022-09-28T06:28:54.101Z,16.85
2022-09-28T06:31:56.995Z,12.68
2022-09-28T06:35:00.261Z,12.98
2022-09-28T06:38:02.933Z,13.23
2022-09-28T06:41:26.041Z,13.98
2022-09-28T06:44:32.400Z,17.20
2022-09-28T06:48:00.072Z,15.25
2022-09-28T06:51:10.916Z,14.35
2022-09-28T06:54:43.493Z,11.48
2022-09-28T06:58:02.145Z,14.20
2022-09-28T07:01:06.337Z,28.65
2022-09-28T07:04:24.411Z,17.10
2022-09-28T07:07:47.646Z,19.15
2022-09-28T07:11:03.133Z,20.25
2022-09-28T07:14:46.611Z,15.20
2022-09-28T07:18:01.972Z,16.40
2022-09-28T07:21:14.168Z,16.58
2022-09-28T07:24:25.111Z,15.20
2022-09-28T07:27:47.033Z,15.40
2022-09-28T07:31:06.909Z,12.80
2022-09-28T07:34:40.195Z,15.93
2022-09-28T07:37:49.923Z,13.85
2022-09-28T07:41:10.713Z,16.77
2022-09-28T07:44:22.616Z,15.18
2022-09-28T07:47:35.546Z,18.35
2022-09-28T07:51:02.325Z,13.43
2022-09-28T07:54:15.591Z,11.45
2022-09-28T07:57:38.170Z,18.25
2022-09-28T08:01:14.991Z,12.65
2022-09-28T08:04:23.762Z,10.80
2022-09-28T08:07:34.480Z,11.02
2022-09-28T08:10:53.797Z,12.50
2022-09-28T08:14:00.603Z,12.65
2022-09-28T08:17:23.244Z,25.65
2022-09-28T08:20:53.383Z,14.88
2022-09-28T08:24:00.525Z,18.15
2022-09-28T08:27:07.055Z,15.07
2022-09-28T08:30:11.135Z,16.40
2022-09-28T08:33:46.226Z,16.95
2022-09-28T08:37:11.624Z,13.45
2022-09-28T08:40:35.327Z,16.52
2022-09-28T08:44:07.443Z,15.23
2022-09-28T08:47:49.348Z,18.30
2022-09-28T08:51:11.846Z,13.85
2022-09-28T08:54:34.804Z,17.63
2022-09-28T08:57:41.985Z,14.10
2022-09-28T09:00:47.570Z,14.90
2022-09-28T09:03:55.217Z,16.30
2022-09-28T09:07:32.714Z,22.17
2022-09-28T09:11:02.976Z,18.80
2022-09-28T09:14:21.746Z,15.60
2022-09-28T09:17:29.853Z,14.65
2022-09-28T09:20:46.006Z,14.57
2022-09-28T09:24:07.328Z,17.17
2022-09-28T09:27:19.718Z,19.67
2022-09-28T09:30:27.145Z,14.73
2022-09-28T09:33:52.106Z,15.50
2022-09-28T09:37:26.784Z,15.93
2022-09-28T09:40:59.731Z,14.40
2022-09-28T09:44:49.260Z,19.48
2022-09-28T09:48:36.093Z,16.50
2022-09-28T09:51:42.708Z,18.67
2022-09-28T09:54:47.459Z,16.17
2022-09-28T09:58:14.907Z,14.40
2022-09-28T10:01:28.969Z,16.50
2022-09-28T10:04:58.691Z,14.20
2022-09-28T10:08:14.556Z,11.90
2022-09-28T10:11:24.088Z,30.33
2022-09-28T10:14:34.787Z,13.98
2022-09-28T10:17:45.659Z,15.52
2022-09-28T10:21:13.801Z,14.60
2022-09-28T10:24:35.515Z,21.05
2022-09-28T10:27:41.323Z,14.82
2022-09-28T10:30:46.288Z,20.50
2022-09-28T10:33:54.196Z,14.88
2022-09-28T10:37:00.096Z,18.35
2022-09-28T10:40:28.292Z,22.52
2022-09-28T10:43:40.520Z,16.63
2022-09-28T10:47:00.377Z,16.58
2022-09-28T10:50:21.527Z,12.98
2022-09-28T10:53:27.731Z,16.73
2022-09-28T10:56:55.837Z,18.05
2022-09-28T11:00:33.607Z,14.60
2022-09-28T11:04:02.407Z,17.92
2022-09-28T11:07:28.230Z,16.30
2022-09-28T11:10:38.659Z,17.13
2022-09-28T11:13:49.709Z,16.23
2022-09-28T11:17:31.056Z,16.40
2022-09-28T11:20:37.699Z,20.40
2022-09-28T11:24:01.569Z,17.67
2022-09-28T11:27:05.724Z,18.63
2022-09-28T11:30:23.158Z,14.38
2022-09-28T11:34:09.516Z,18.30
2022-09-28T11:37:32.187Z,17.08
2022-09-28T11:40:49.985Z,18.10
2022-09-28T11:44:07.924Z,16.38
2022-09-28T11:47:32.233Z,15.73
2022-09-28T11:50:47.410Z,18.00
2022-09-28T11:54:01.815Z,16.27
2022-09-28T11:57:27.234Z,16.38
2022-09-28T12:00:32.992Z,14.15
2022-09-28T12:03:46.335Z,11.88
2022-09-28T12:06:54.264Z,13.35
2022-09-28T12:10:04.602Z,11.77
2022-09-28T12:13:15.801Z,24.23
2022-09-28T12:19:49.297Z,11.15
2022-09-28T12:23:00.400Z,19.35
2022-09-28T12:26:04.023Z,14.20
2022-09-28T12:29:11.554Z,11.35
2022-09-28T12:32:23.383Z,10.20
2022-09-28T12:35:36.840Z,13.30
2022-09-28T12:39:02.922Z,10.32
2022-09-28T12:42:31.640Z,10.43
2022-09-28T12:46:09.762Z,8.00
2022-09-28T12:53:07.148Z,8.20
2022-09-28T12:56:18.073Z,13.88
2022-09-28T12:59:29.912Z,10.15
2022-09-28T13:02:53.757Z,12.75
2022-09-28T13:06:15.194Z,9.57
2022-09-28T13:14:11.122Z,6.97
2022-09-28T13:17:20.308Z,10.15
2022-09-28T13:20:32.552Z,10.13
2022-09-28T13:23:51.918Z,9.20
2022-09-28T13:26:58.679Z,7.93
2022-09-28T13:30:11.121Z,11.18
2022-09-28T13:33:24.942Z,8.82
2022-09-28T13:36:40.480Z,11.35
2022-09-28T13:39:56.308Z,8.02
2022-09-28T13:43:20.754Z,5.88
2022-09-28T13:46:31.027Z,6.07
2022-09-28T13:49:42.669Z,3.92
2022-09-28T13:52:48.096Z,10.70
2022-09-28T13:55:56.991Z,5.45
2022-09-28T13:59:01.602Z,7.07
2022-09-28T14:02:14.593Z,5.80
2022-09-28T14:05:37.620Z,4.90
2022-09-28T14:08:41.004Z,8.90
2022-09-28T14:11:55.779Z,5.22
2022-09-28T14:15:01.658Z,6.15
2022-09-28T14:18:12.443Z,4.03
2022-09-28T14:21:23.918Z,4.95
2022-09-28T14:24:37.112Z,7.32
2022-09-28T14:27:53.633Z,6.10
2022-09-28T14:30:58.760Z,3.63
2022-09-28T14:34:08.003Z,6.85
2022-09-28T14:37:37.332Z,5.50
2022-09-28T14:41:12.390Z,3.53
2022-09-28T14:44:18.371Z,6.43
2022-09-28T14:47:34.431Z,1.90
2022-09-28T14:50:38.882Z,5.88
2022-09-28T14:53:43.919Z,4.40
2022-09-28T14:56:57.949Z,6.13
2022-09-28T15:00:01.391Z,4.43
2022-09-28T15:03:11.408Z,5.68
2022-09-28T15:06:19.791Z,4.68
2022-09-28T15:09:28.535Z,6.03
2022-09-28T15:12:31.961Z,5.68
2022-09-28T15:15:36.443Z,7.72
2022-09-28T15:18:51.215Z,3.58
2022-09-28T15:21:58.804Z,3.33
2022-09-28T15:25:02.957Z,18.65
2022-09-28T15:28:16.251Z,10.18
2022-09-28T15:31:19.642Z,5.32
2022-09-28T15:34:46.675Z,3.63
2022-09-28T15:37:52.226Z,3.50
2022-09-28T15:40:54.999Z,4.95
2022-09-28T15:44:16.517Z,4.43
2022-09-28T15:47:28.413Z,1.65
2022-09-28T15:50:33.469Z,4.03
2022-09-28T15:53:44.229Z,3.05
2022-09-28T15:56:54.722Z,4.25
2022-09-28T15:59:59.147Z,3.45
2022-09-28T16:03:03.806Z,2.40
2022-09-28T16:06:09.781Z,2.05
2022-09-28T16:09:40.273Z,3.38
2022-09-28T16:12:48.449Z,4.43
2022-09-28T16:16:00.040Z,4.95
2022-09-28T16:19:09.549Z,13.00
2022-09-28T16:22:17.617Z,4.20
2022-09-28T16:25:23.845Z,2.15
2022-09-28T16:28:48.807Z,5.20
2022-09-28T16:31:54.049Z,8.20
2022-09-28T16:35:17.450Z,5.32
2022-09-28T16:38:23.455Z,9.70
2022-09-28T16:41:30.585Z,4.65
2022-09-28T16:44:35.765Z,2.80
2022-09-28T16:47:40.544Z,7.32
2022-09-28T16:50:47.497Z,3.08
2022-09-28T16:54:19.986Z,5.22
2022-09-28T16:57:32.120Z,5.80
2022-09-28T17:00:37.255Z,8.32
2022-09-28T17:03:50.568Z,1.77
2022-09-28T17:06:58.415Z,3.15
2022-09-28T17:10:10.867Z,3.92
2022-09-28T17:13:19.966Z,5.97
2022-09-28T17:16:43.582Z,3.47
2022-09-28T17:19:53.260Z,11.63
2022-09-28T17:23:00.399Z,3.85
2022-09-28T17:26:03.898Z,5.75
2022-09-28T17:29:14.409Z,2.83
2022-09-28T17:32:22.861Z,12.15
2022-09-28T17:35:34.090Z,77.18
2022-09-28T17:38:44.604Z,52.10
2022-09-28T17:41:47.212Z,52.72
2022-09-28T17:44:51.350Z,20.33
2022-09-28T17:47:53.891Z,18.05
2022-09-28T17:51:02.172Z,22.00
2022-09-28T18:08:08.056Z,5.55
2022-09-28T18:11:11.248Z,14.98
2022-09-28T18:14:19.002Z,9.68
2022-09-28T18:17:26.825Z,8.88
2022-09-28T18:20:35.816Z,13.60
2022-09-28T18:23:39.931Z,19.20
2022-09-28T18:27:02.068Z,11.40
2022-09-28T18:30:08.656Z,18.95
2022-09-28T18:33:11.794Z,13.73
2022-09-28T18:36:15.515Z,9.70
2022-09-28T18:39:21.539Z,7.30
2022-09-28T18:42:24.615Z,11.13
2022-09-28T18:45:27.969Z,18.58
2022-09-28T18:48:30.675Z,16.80
2022-09-28T18:51:34.195Z,16.30
2022-09-28T18:54:38.921Z,13.48
2022-09-28T18:57:42.575Z,11.15
2022-09-28T19:00:45.400Z,8.52
2022-09-28T19:03:47.879Z,7.72
2022-09-28T19:06:52.227Z,12.02
2022-09-28T19:09:58.580Z,14.10
2022-09-28T19:13:05.806Z,10.82
2022-09-28T19:16:11.278Z,8.00
2022-09-28T19:19:15.309Z,10.88
2022-09-28T19:22:21.936Z,11.93
2022-09-28T19:25:28.594Z,7.68
2022-09-28T19:28:31.263Z,11.00
2022-09-28T19:31:34.977Z,10.55
2022-09-28T19:34:38.084Z,21.60
2022-09-28T19:37:42.117Z,10.45
2022-09-28T19:40:46.564Z,9.52
2022-09-28T19:43:50.187Z,8.45
2022-09-28T19:46:54.763Z,13.43
2022-09-28T19:49:57.454Z,11.15
2022-09-28T19:53:01.571Z,10.95
2022-09-28T19:56:06.272Z,8.50
2022-09-28T19:59:10.567Z,11.90
2022-09-28T20:02:14.019Z,9.18
2022-09-28T20:05:16.994Z,8.38
2022-09-28T20:08:22.032Z,6.53
2022-09-28T20:11:26.278Z,8.30
2022-09-28T20:14:33.030Z,7.40
2022-09-28T20:17:39.347Z,13.60
2022-09-28T20:20:43.993Z,9.75
2022-09-28T20:23:47.044Z,19.52
2022-09-28T20:26:51.541Z,8.95
2022-09-28T20:29:54.190Z,5.57
2022-09-28T20:32:57.591Z,5.82
2022-09-28T20:36:04.565Z,6.85
2022-09-28T20:39:07.168Z,8.68
2022-09-28T20:42:10.994Z,8.93
2022-09-28T20:45:15.852Z,11.05
2022-09-28T20:48:18.866Z,12.00
2022-09-28T20:51:21.883Z,11.48
2022-09-28T20:54:25.110Z,10.43
2022-09-28T20:57:31.209Z,14.35
2022-09-28T21:00:34.612Z,11.15
2022-09-28T21:03:40.634Z,14.02
2022-09-28T21:06:43.489Z,9.15
2022-09-28T21:09:46.042Z,10.88
2022-09-28T21:12:53.190Z,11.68
2022-09-28T21:15:56.105Z,12.02
2022-09-28T21:18:58.999Z,13.10
2022-09-28T21:22:01.685Z,8.68
2022-09-28T21:25:04.433Z,9.52
2022-09-28T21:28:11.109Z,10.27
2022-09-28T21:31:13.930Z,12.13
2022-09-28T21:34:18.550Z,12.57
2022-09-28T21:37:21.189Z,17.25
2022-09-28T21:40:24.128Z,12.75
2022-09-28T21:43:29.096Z,9.95
2022-09-28T21:46:34.646Z,8.20
2022-09-28T21:49:37.450Z,13.80
2022-09-28T21:52:40.126Z,12.63
2022-09-28T21:55:45.686Z,10.10
2022-09-28T21:58:49.819Z,14.10
2022-09-28T22:01:54.623Z,10.77
2022-09-28T22:04:59.156Z,13.35
2022-09-28T22:08:02.816Z,13.98
2022-09-28T22:11:06.897Z,10.77
2022-09-28T22:14:11.645Z,12.50
2022-09-28T22:17:14.214Z,15.60
2022-09-28T22:20:17.031Z,9.50
2022-09-28T22:23:19.545Z,12.43
2022-09-28T22:26:23.403Z,10.65
2022-09-28T22:29:27.624Z,10.15
2022-09-28T22:32:30.138Z,11.55
2022-09-28T22:35:32.883Z,11.05
2022-09-28T22:38:36.336Z,10.75
2022-09-28T22:41:39.195Z,10.45
2022-09-28T22:44:43.120Z,12.57
2022-09-28T22:47:46.579Z,11.52
2022-09-28T22:50:52.381Z,9.98
2022-09-28T22:53:56.390Z,9.30
2022-09-28T22:56:59.029Z,12.18
2022-09-28T23:00:03.039Z,8.68
2022-09-28T23:03:05.837Z,7.00
2022-09-28T23:06:08.953Z,10.07
2022-09-28T23:09:11.766Z,9.68
2022-09-28T23:12:14.692Z,11.52
2022-09-28T23:15:18.746Z,9.05
2022-09-28T23:18:21.286Z,8.40
2022-09-28T23:21:25.985Z,9.73
2022-09-28T23:24:28.466Z,8.65
2022-09-28T23:27:33.472Z,12.93
2022-09-28T23:30:37.441Z,9.43
2022-09-28T23:33:40.695Z,9.35
2022-09-28T23:36:43.181Z,7.38
2022-09-28T23:39:46.215Z,10.90
2022-09-28T23:42:48.772Z,14.00
2022-09-28T23:45:52.935Z,13.52
2022-09-28T23:48:58.666Z,10.20
2022-09-28T23:52:01.461Z,8.27
2022-09-28T23:55:04.524Z,15.40
2022-09-28T23:58:07.289Z,8.43
